Time;durP1;ratioP1;P1;durP2;ratioP2;P2;SDS_P1;SDS_P2;PMS_P1;PMS_P2;Temp;Humidity;BMP_temperature;BMP_pressure;BME280_temperature;BME280_humidity;BME280_pressure;Samples;Min_cycle;Max_cycle;Signal;HPM_P1;HPM_P2
2021/01/23 00:04:05;;;;;;;4.40;4.30;;;4.30;99.90;;;;;;10364325;28;20214;-79
2021/01/23 00:09:13;;;;;;;4.40;4.30;;;4.30;99.90;;;;;;10360772;28;20222;-79
2021/01/23 00:14:25;;;;;;;4.73;4.57;;;4.30;99.90;;;;;;10364376;28;20690;-79
2021/01/23 00:19:33;;;;;;;5.00;4.80;;;4.30;99.90;;;;;;10372950;28;20209;-79
2021/01/23 00:24:55;;;;;;;4.73;4.53;;;4.30;99.90;;;;;;10392357;28;20301;-79
2021/01/23 00:36:53;;;;;;;7.00;6.60;;;4.20;99.90;;;;;;10305900;28;20244;-80
2021/01/23 00:41:55;;;;;;;5.90;5.60;;;4.10;99.90;;;;;;10392441;28;20349;-80
2021/01/23 00:46:57;;;;;;;5.47;5.17;;;4.20;99.90;;;;;;10399198;28;20236;-80
2021/01/23 00:51:59;;;;;;;5.60;5.30;;;4.20;99.90;;;;;;10361461;28;20710;-79
2021/01/23 00:57:01;;;;;;;6.30;6.00;;;4.30;99.90;;;;;;10376102;28;20213;-80
2021/01/23 01:02:03;;;;;;;6.37;6.07;;;4.30;99.90;;;;;;10345148;28;20306;-80
2021/01/23 01:07:12;;;;;;;6.47;6.07;;;4.40;99.90;;;;;;10344001;28;20230;-80
2021/01/23 01:12:14;;;;;;;7.00;6.60;;;4.40;99.90;;;;;;10360685;28;20636;-79
2021/01/23 01:17:16;;;;;;;7.50;6.90;;;4.40;99.90;;;;;;10344030;28;20194;-80
2021/01/23 01:22:18;;;;;;;8.50;7.90;;;4.40;99.90;;;;;;10360671;28;20229;-80
2021/01/23 01:27:20;;;;;;;9.43;8.77;;;4.40;99.90;;;;;;10362070;28;20315;-80
2021/01/23 01:32:22;;;;;;;9.53;8.87;;;4.40;99.90;;;;;;10359299;28;20305;-80
2021/01/23 01:37:24;;;;;;;9.43;8.73;;;4.40;99.90;;;;;;10363659;28;20201;-80
2021/01/23 01:42:25;;;;;;;10.10;9.40;;;4.50;99.90;;;;;;10343257;28;20230;-80
2021/01/23 01:47:28;;;;;;;10.70;9.90;;;4.50;99.90;;;;;;10381181;28;20221;-80
2021/01/23 01:52:30;;;;;;;10.10;9.40;;;4.50;99.90;;;;;;10364197;28;20230;-80
2021/01/23 01:57:31;;;;;;;9.70;9.00;;;4.50;99.90;;;;;;10363707;28;20191;-80
2021/01/23 02:03:14;;;;;;;7.50;7.10;;;4.60;99.90;;;;;;10365172;28;20242;-80
2021/01/23 02:08:29;;;;;;;7.20;6.77;;;4.60;99.90;;;;;;10373056;28;20317;-80
2021/01/23 02:13:32;;;;;;;6.80;6.40;;;4.60;99.90;;;;;;10339537;28;20622;-80
2021/01/23 02:18:40;;;;;;;6.37;6.07;;;4.60;99.90;;;;;;10353305;28;20670;-80
2021/01/23 02:23:45;;;;;;;6.30;6.00;;;4.60;99.90;;;;;;10373908;28;20214;-80
2021/01/23 02:29:06;;;;;;;6.83;6.53;;;4.70;99.90;;;;;;10355859;28;20690;-80
2021/01/23 02:34:11;;;;;;;6.10;5.80;;;4.70;99.90;;;;;;10341415;28;20230;-80
2021/01/23 02:39:14;;;;;;;7.10;6.80;;;4.70;99.90;;;;;;10357286;28;20201;-80
2021/01/23 02:44:16;;;;;;;6.23;5.93;;;4.70;99.90;;;;;;10377173;28;20221;-80
2021/01/23 02:49:19;;;;;;;6.30;5.90;;;4.70;99.90;;;;;;10383940;28;20233;-80
2021/01/23 02:54:28;;;;;;;5.90;5.70;;;4.70;99.90;;;;;;10367195;28;20226;-80
2021/01/23 02:59:32;;;;;;;5.70;5.40;;;4.70;99.90;;;;;;10348916;28;20217;-80
2021/01/23 03:04:37;;;;;;;5.20;5.00;;;4.80;99.90;;;;;;10378189;28;20222;-80
2021/01/23 03:09:39;;;;;;;5.03;4.83;;;4.80;99.90;;;;;;10363202;28;20218;-80
2021/01/23 03:14:40;;;;;;;4.80;4.60;;;4.80;99.90;;;;;;10361356;28;20232;-80
2021/01/23 03:19:43;;;;;;;5.17;4.90;;;4.80;99.90;;;;;;10364693;28;20630;-80
2021/01/23 03:24:45;;;;;;;5.30;5.00;;;4.80;99.90;;;;;;10348634;28;20288;-80
2021/01/23 03:29:47;;;;;;;5.63;5.43;;;4.80;99.90;;;;;;10382549;28;20253;-80
2021/01/23 03:34:49;;;;;;;5.90;5.60;;;4.90;99.90;;;;;;10362765;28;20253;-80
2021/01/23 03:39:51;;;;;;;5.83;5.53;;;4.90;99.90;;;;;;10366793;28;20198;-80
2021/01/23 03:44:53;;;;;;;6.07;5.77;;;4.90;99.90;;;;;;10363960;28;20656;-80
2021/01/23 03:49:55;;;;;;;6.90;6.60;;;4.90;99.90;;;;;;10363469;28;20246;-80
2021/01/23 03:54:57;;;;;;;6.43;6.13;;;4.90;99.90;;;;;;10364579;28;20276;-80
2021/01/23 03:59:58;;;;;;;6.60;6.20;;;4.80;99.90;;;;;;10364596;28;20198;-80
2021/01/23 04:05:01;;;;;;;6.73;6.33;;;4.80;99.90;;;;;;10363804;28;20241;-81
2021/01/23 04:10:04;;;;;;;6.20;5.80;;;4.80;99.90;;;;;;10365660;28;20305;-81
2021/01/23 04:15:07;;;;;;;5.33;5.13;;;4.80;99.90;;;;;;10381545;28;20250;-80
2021/01/23 04:20:10;;;;;;;6.20;5.90;;;4.80;99.90;;;;;;10344108;28;20209;-80
2021/01/23 04:25:12;;;;;;;6.47;5.97;;;4.80;99.90;;;;;;10358925;28;20564;-81
2021/01/23 04:30:15;;;;;;;6.20;5.90;;;4.80;99.90;;;;;;10343883;28;20647;-80
2021/01/23 04:35:18;;;;;;;6.33;6.03;;;4.80;99.90;;;;;;10359485;28;20195;-80
2021/01/23 04:40:19;;;;;;;6.47;6.07;;;4.80;99.90;;;;;;10377744;28;20191;-80
2021/01/23 04:45:21;;;;;;;4.90;4.70;;;4.90;99.90;;;;;;10343567;28;20222;-80
2021/01/23 04:50:24;;;;;;;5.07;4.87;;;4.80;99.90;;;;;;10343698;28;20681;-80
2021/01/23 04:55:25;;;;;;;6.10;5.70;;;4.70;99.90;;;;;;10359055;28;20215;-80
2021/01/23 05:00:27;;;;;;;5.70;5.37;;;4.70;99.90;;;;;;10363355;28;20706;-80
2021/01/23 05:05:30;;;;;;;6.10;5.70;;;4.70;99.90;;;;;;10343791;28;20206;-80
2021/01/23 05:10:33;;;;;;;5.70;5.30;;;4.70;99.90;;;;;;10375129;28;20297;-80
2021/01/23 05:15:34;;;;;;;4.93;4.70;;;4.70;99.90;;;;;;10396128;23;20226;-84
2021/01/23 05:20:39;;;;;;;5.00;4.77;;;4.70;99.90;;;;;;10377831;28;20740;-82
2021/01/23 05:25:42;;;;;;;4.90;4.60;;;4.60;99.90;;;;;;10360230;28;20694;-82
2021/01/23 05:30:46;;;;;;;4.70;4.47;;;4.60;99.90;;;;;;10358491;28;20202;-82
2021/01/23 05:35:58;;;;;;;4.70;4.47;;;4.60;99.90;;;;;;10333074;28;20211;-81
2021/01/23 05:41:11;;;;;;;3.97;3.77;;;4.60;99.90;;;;;;10319700;28;20287;-82
2021/01/23 05:46:15;;;;;;;4.10;3.90;;;4.50;99.90;;;;;;10316191;28;20226;-83
2021/01/23 05:51:19;;;;;;;4.30;4.10;;;4.50;99.90;;;;;;10333527;28;20229;-83
2021/01/23 05:56:20;;;;;;;4.30;4.00;;;4.50;99.90;;;;;;10317209;28;20199;-84
2021/01/23 06:01:23;;;;;;;4.43;4.23;;;4.40;99.90;;;;;;10333542;28;20281;-85
2021/01/23 06:06:25;;;;;;;3.87;3.67;;;4.30;99.90;;;;;;10332111;28;20258;-83
2021/01/23 06:11:38;;;;;;;4.00;3.77;;;4.40;99.90;;;;;;10333017;28;20222;-83
2021/01/23 06:16:44;;;;;;;4.37;4.17;;;4.40;99.90;;;;;;10314831;28;20218;-82
2021/01/23 06:21:51;;;;;;;3.60;3.40;;;4.40;99.90;;;;;;10345031;28;20712;-82
2021/01/23 06:27:01;;;;;;;4.73;4.43;;;4.50;99.90;;;;;;10362806;28;20222;-83
2021/01/23 06:32:27;;;;;;;3.33;3.23;;;4.50;99.90;;;;;;10347480;28;20310;-81
2021/01/23 06:37:31;;;;;;;2.83;2.63;;;4.60;99.90;;;;;;10347533;28;20206;-82
2021/01/23 06:42:34;;;;;;;4.50;4.20;;;4.60;99.90;;;;;;10364588;28;20226;-81
2021/01/23 06:47:38;;;;;;;4.50;4.30;;;4.60;99.90;;;;;;10363264;28;20309;-83
2021/01/23 06:52:49;;;;;;;3.83;3.60;;;4.60;99.90;;;;;;10362726;28;20281;-81
2021/01/23 06:57:50;;;;;;;4.47;4.27;;;4.70;99.90;;;;;;10347286;28;20705;-82
2021/01/23 07:02:52;;;;;;;4.67;4.37;;;4.60;99.90;;;;;;10348522;28;20245;-82
2021/01/23 07:07:54;;;;;;;4.53;4.33;;;4.60;99.90;;;;;;10363114;28;20536;-81
2021/01/23 07:12:57;;;;;;;4.93;4.63;;;4.50;99.90;;;;;;10377838;28;20265;-83
2021/01/23 07:18:11;;;;;;;4.40;4.10;;;4.50;99.90;;;;;;10362519;28;20202;-82
2021/01/23 07:23:14;;;;;;;4.67;4.27;;;4.50;99.90;;;;;;10377968;28;20306;-84
2021/01/23 07:28:18;;;;;;;4.27;4.07;;;4.50;99.90;;;;;;10350572;28;20222;-80
2021/01/23 07:33:30;;;;;;;4.93;4.63;;;4.50;99.90;;;;;;10369899;28;20231;-82
2021/01/23 07:38:32;;;;;;;4.67;4.37;;;4.60;99.90;;;;;;10337906;28;20285;-82
2021/01/23 07:43:34;;;;;;;4.50;4.20;;;4.60;99.90;;;;;;10347257;28;20309;-82
2021/01/23 07:48:40;;;;;;;4.13;3.93;;;4.60;99.90;;;;;;10346087;28;20222;-82
2021/01/23 07:53:42;;;;;;;6.20;5.70;;;4.60;99.90;;;;;;10348022;28;20238;-82
2021/01/23 07:58:48;;;;;;;9.00;6.53;;;4.60;99.90;;;;;;10328901;28;20286;-83
2021/01/23 08:03:50;;;;;;;5.07;4.73;;;4.60;99.90;;;;;;10335869;28;20226;-80
2021/01/23 08:08:53;;;;;;;4.87;4.57;;;4.70;99.90;;;;;;10368820;28;20243;-83
2021/01/23 08:14:06;;;;;;;5.43;5.03;;;4.80;99.90;;;;;;10348207;28;20694;-81
2021/01/23 08:19:09;;;;;;;5.00;4.70;;;4.80;99.90;;;;;;10362283;28;20221;-81
2021/01/23 08:24:30;;;;;;;4.80;4.30;;;4.90;99.90;;;;;;10338348;28;20392;-81
2021/01/23 08:29:41;;;;;;;5.57;5.17;;;4.90;99.90;;;;;;10349688;28;20596;-81
2021/01/23 08:34:44;;;;;;;5.13;4.83;;;4.90;99.90;;;;;;10361382;28;20226;-82
2021/01/23 08:39:48;;;;;;;5.20;4.80;;;4.90;99.90;;;;;;10337930;28;20207;-82
2021/01/23 08:44:50;;;;;;;5.00;4.50;;;5.00;99.90;;;;;;10353433;28;20225;-81
2021/01/23 08:49:51;;;;;;;4.50;4.20;;;5.10;99.90;;;;;;10340588;28;20214;-82
2021/01/23 08:54:54;;;;;;;6.00;4.10;;;5.20;99.90;;;;;;10324051;28;20309;-81
2021/01/23 08:59:55;;;;;;;6.00;5.60;;;5.20;99.90;;;;;;10340713;28;20191;-82
2021/01/23 09:04:57;;;;;;;4.80;4.40;;;5.30;99.90;;;;;;10341773;28;20229;-82
2021/01/23 09:10:01;;;;;;;5.07;4.60;;;5.40;99.90;;;;;;10337455;28;20618;-83
2021/01/23 09:15:07;;;;;;;4.40;4.10;;;5.40;99.90;;;;;;10357383;28;20226;-83
2021/01/23 09:20:10;;;;;;;5.50;5.00;;;5.50;99.90;;;;;;10381566;28;20247;-85
2021/01/23 09:25:13;;;;;;;4.93;4.53;;;5.60;99.90;;;;;;10368836;28;20265;-84
2021/01/23 09:30:16;;;;;;;4.23;4.03;;;5.70;99.90;;;;;;10359140;28;20257;-85
2021/01/23 09:35:18;;;;;;;4.37;4.07;;;5.90;99.90;;;;;;10370824;28;20214;-84
2021/01/23 09:40:21;;;;;;;4.67;3.97;;;6.00;99.90;;;;;;10358582;28;20248;-84
2021/01/23 09:45:23;;;;;;;4.77;4.37;;;6.00;99.90;;;;;;10371797;28;20242;-84
2021/01/23 09:50:25;;;;;;;4.07;3.77;;;6.10;99.90;;;;;;10369288;28;20261;-86
2021/01/23 09:55:28;;;;;;;3.50;3.23;;;6.20;99.90;;;;;;10357048;28;20321;-86
2021/01/23 10:00:29;;;;;;;3.53;3.33;;;6.30;99.90;;;;;;10318364;28;20286;-82
2021/01/23 10:05:31;;;;;;;4.03;3.73;;;6.30;99.90;;;;;;10311238;28;20774;-82
2021/01/23 10:10:34;;;;;;;5.73;3.97;;;6.40;99.90;;;;;;10372305;28;20231;-82
2021/01/23 10:15:35;;;;;;;3.67;3.47;;;6.50;99.90;;;;;;10338077;28;20270;-82
2021/01/23 10:20:38;;;;;;;3.03;2.83;;;6.50;99.90;;;;;;10358535;28;20202;-81
2021/01/23 10:25:41;;;;;;;3.43;3.17;;;6.60;99.90;;;;;;10400208;28;20234;-80
2021/01/23 10:30:42;;;;;;;3.40;3.20;;;6.60;99.90;;;;;;10350428;28;20701;-81
2021/01/23 10:35:44;;;;;;;3.07;2.87;;;6.60;99.90;;;;;;10356234;28;20241;-81
2021/01/23 10:40:46;;;;;;;4.07;3.77;;;6.60;99.90;;;;;;10348666;28;20199;-81
2021/01/23 10:45:48;;;;;;;3.30;3.10;;;6.60;99.90;;;;;;10366478;28;20672;-81
2021/01/23 10:50:50;;;;;;;3.00;2.83;;;6.60;99.90;;;;;;10366757;28;20301;-80
2021/01/23 10:55:52;;;;;;;3.17;2.90;;;6.60;99.90;;;;;;10342849;28;20245;-82
2021/01/23 11:00:54;;;;;;;3.67;3.40;;;6.70;99.90;;;;;;10356415;28;20634;-81
2021/01/23 11:05:56;;;;;;;3.07;2.73;;;6.80;99.90;;;;;;10390633;28;20222;-81
2021/01/23 11:10:58;;;;;;;3.33;3.13;;;6.80;99.90;;;;;;10383517;28;20277;-81
2021/01/23 11:16:00;;;;;;;3.40;3.20;;;6.90;99.90;;;;;;10331439;23;20254;-76
2021/01/23 11:21:02;;;;;;;3.37;3.17;;;6.80;99.90;;;;;;10365917;28;20208;-76
2021/01/23 11:26:04;;;;;;;3.37;3.07;;;6.80;99.90;;;;;;10336345;28;20310;-76
2021/01/23 11:31:06;;;;;;;3.03;2.73;;;6.80;99.90;;;;;;10325206;28;20744;-76
2021/01/23 11:36:08;;;;;;;3.50;3.27;;;6.80;99.90;;;;;;10323998;28;20258;-76
2021/01/23 11:41:11;;;;;;;4.10;3.00;;;6.70;99.90;;;;;;10325073;28;20594;-76
2021/01/23 11:46:12;;;;;;;3.07;2.87;;;6.60;99.90;;;;;;10307637;28;20219;-75
2021/01/23 11:51:14;;;;;;;3.17;2.93;;;6.60;99.90;;;;;;10323495;28;20290;-78
2021/01/23 11:56:16;;;;;;;2.70;2.53;;;6.50;99.90;;;;;;10305760;28;20302;-78
2021/01/23 12:01:18;;;;;;;5.57;3.20;;;6.40;99.90;;;;;;10325722;28;20238;-77
2021/01/23 12:06:19;;;;;;;3.30;2.93;;;6.40;99.90;;;;;;10322383;28;20256;-78
2021/01/23 12:11:22;;;;;;;2.83;2.67;;;6.50;99.90;;;;;;10321219;28;20214;-78
2021/01/23 12:16:24;;;;;;;3.53;2.50;;;6.50;99.90;;;;;;10358896;28;20203;-78
2021/01/23 12:21:25;;;;;;;3.00;2.37;;;6.60;99.90;;;;;;10363208;28;20333;-78
2021/01/23 12:26:28;;;;;;;2.67;2.47;;;6.60;99.90;;;;;;10379900;28;20642;-76
2021/01/23 12:31:29;;;;;;;2.63;2.43;;;6.80;99.90;;;;;;10361971;28;20293;-76
2021/01/23 12:36:31;;;;;;;2.30;2.20;;;6.80;99.90;;;;;;10363126;28;20199;-76
2021/01/23 12:41:33;;;;;;;3.40;2.73;;;6.90;99.90;;;;;;10362661;28;20214;-78
2021/01/23 12:46:35;;;;;;;2.43;2.23;;;6.80;99.90;;;;;;10347232;28;20221;-79
2021/01/23 12:51:37;;;;;;;2.70;2.50;;;6.90;99.90;;;;;;10375050;28;20701;-80
2021/01/23 12:56:39;;;;;;;3.03;2.07;;;7.00;99.90;;;;;;10379918;28;20206;-79
2021/01/23 13:01:41;;;;;;;2.90;2.63;;;7.00;99.90;;;;;;10361326;28;20245;-77
2021/01/23 13:06:43;;;;;;;2.97;2.60;;;7.00;99.90;;;;;;10397806;28;20825;-77
2021/01/23 13:11:45;;;;;;;3.00;2.70;;;7.10;99.90;;;;;;10358472;28;20249;-78
2021/01/23 13:16:48;;;;;;;3.03;2.83;;;7.10;99.90;;;;;;10359433;28;20203;-78
2021/01/23 13:21:49;;;;;;;3.20;2.80;;;7.20;99.90;;;;;;10344183;28;20757;-78
2021/01/23 13:26:52;;;;;;;3.30;3.10;;;7.30;99.90;;;;;;10361192;28;20206;-78
2021/01/23 13:31:53;;;;;;;3.57;3.27;;;7.40;99.90;;;;;;10362079;28;20312;-78
2021/01/23 13:36:55;;;;;;;2.70;2.50;;;7.40;99.90;;;;;;10359880;28;20690;-78
2021/01/23 13:41:58;;;;;;;3.60;2.60;;;7.40;99.90;;;;;;10366266;28;20728;-78
2021/01/23 13:46:59;;;;;;;4.23;2.80;;;7.30;99.90;;;;;;10360985;28;20737;-78
2021/01/23 13:52:01;;;;;;;2.80;2.60;;;7.20;99.90;;;;;;10359137;28;20230;-77
2021/01/23 13:57:04;;;;;;;3.43;3.23;;;7.20;99.90;;;;;;10342205;28;20206;-78
2021/01/23 14:02:06;;;;;;;2.43;2.27;;;7.20;99.90;;;;;;10359708;28;20301;-78
2021/01/23 14:07:07;;;;;;;3.50;2.80;;;7.30;99.90;;;;;;10359871;28;20218;-77
2021/01/23 14:12:10;;;;;;;3.33;3.10;;;7.30;99.90;;;;;;10360709;28;20233;-77
2021/01/23 14:17:12;;;;;;;2.77;2.57;;;7.20;99.90;;;;;;10359266;28;20276;-78
2021/01/23 14:22:13;;;;;;;3.03;2.73;;;7.20;99.90;;;;;;10360349;28;20226;-78
2021/01/23 14:27:16;;;;;;;3.13;2.93;;;7.10;99.90;;;;;;10359770;28;20219;-77
2021/01/23 14:32:19;;;;;;;4.07;3.77;;;7.10;99.90;;;;;;10359637;28;20238;-77
2021/01/23 14:37:20;;;;;;;4.63;3.10;;;7.10;99.90;;;;;;10357777;28;20213;-77
2021/01/23 14:42:23;;;;;;;4.00;3.70;;;7.10;99.90;;;;;;10353822;28;20233;-77
2021/01/23 14:47:24;;;;;;;5.53;4.40;;;7.20;99.90;;;;;;10330708;28;20235;-77
2021/01/23 14:52:26;;;;;;;4.30;3.90;;;7.20;99.90;;;;;;10330059;28;20759;-77
2021/01/23 14:57:28;;;;;;;4.80;4.40;;;7.10;99.90;;;;;;10346557;28;20206;-77
2021/01/23 15:02:36;;;;;;;5.43;4.93;;;7.00;99.90;;;;;;10354581;28;20592;-77
2021/01/23 15:07:40;;;;;;;5.73;5.20;;;6.90;99.90;;;;;;10360047;28;20222;-78
2021/01/23 15:12:43;;;;;;;6.50;6.00;;;6.80;99.90;;;;;;10360238;28;20243;-78
2021/01/23 15:17:45;;;;;;;7.10;6.40;;;6.70;99.90;;;;;;10355682;28;20214;-78
2021/01/23 15:22:46;;;;;;;7.63;6.63;;;6.70;99.90;;;;;;10347875;28;20230;-77
2021/01/23 15:27:49;;;;;;;7.30;6.60;;;6.60;99.90;;;;;;10360848;28;20222;-77
2021/01/23 15:32:51;;;;;;;8.97;7.67;;;6.60;99.90;;;;;;10360607;28;20313;-77
2021/01/23 15:37:53;;;;;;;7.90;7.20;;;6.50;99.90;;;;;;10362090;28;20257;-78
2021/01/23 15:42:55;;;;;;;7.00;6.50;;;6.40;99.90;;;;;;10358508;28;20226;-77
2021/01/23 15:47:57;;;;;;;5.43;4.93;;;6.40;99.90;;;;;;10356638;28;20527;-77
2021/01/23 15:52:59;;;;;;;5.50;5.00;;;6.40;99.90;;;;;;10361187;28;20257;-78
2021/01/23 15:58:02;;;;;;;4.90;4.50;;;6.30;99.90;;;;;;10360627;28;20213;-77
2021/01/23 16:03:04;;;;;;;5.20;4.80;;;6.30;99.90;;;;;;10359533;28;20993;-77
2021/01/23 16:08:06;;;;;;;5.30;4.80;;;6.30;99.90;;;;;;10359946;28;20222;-77
2021/01/23 16:13:10;;;;;;;6.00;5.50;;;6.30;99.90;;;;;;10358409;28;20242;-76
2021/01/23 16:18:11;;;;;;;4.40;4.10;;;6.30;99.90;;;;;;10358739;28;20198;-76
2021/01/23 16:23:15;;;;;;;5.03;4.27;;;6.20;99.90;;;;;;10358513;28;20241;-76
2021/01/23 16:28:17;;;;;;;5.30;4.83;;;6.20;99.90;;;;;;10349313;28;20214;-76
2021/01/23 16:33:19;;;;;;;5.10;4.60;;;6.20;99.90;;;;;;10347301;28;20254;-76
2021/01/23 16:38:21;;;;;;;5.37;4.87;;;6.20;99.90;;;;;;10352300;28;20231;-76
2021/01/23 16:43:23;;;;;;;5.67;5.20;;;6.20;99.90;;;;;;10359652;28;20305;-76
2021/01/23 16:48:25;;;;;;;6.20;5.70;;;6.20;99.90;;;;;;10354979;28;20632;-76
2021/01/23 16:53:27;;;;;;;5.97;5.37;;;6.20;99.90;;;;;;10344647;28;20301;-75
2021/01/23 16:58:29;;;;;;;5.83;5.43;;;6.20;99.90;;;;;;10353174;28;20203;-76
2021/01/23 17:03:31;;;;;;;5.67;5.17;;;6.10;99.90;;;;;;10347756;28;20223;-77
2021/01/23 17:08:32;;;;;;;6.17;5.63;;;6.10;99.90;;;;;;10334692;28;20246;-75
2021/01/23 17:13:35;;;;;;;6.17;5.67;;;6.10;99.90;;;;;;10378870;23;20653;-84
2021/01/23 17:18:37;;;;;;;6.97;6.37;;;6.00;99.90;;;;;;10358924;28;20199;-83
2021/01/23 17:23:41;;;;;;;7.10;6.50;;;5.90;99.90;;;;;;10358624;28;20211;-83
2021/01/23 17:28:47;;;;;;;6.77;6.17;;;5.90;99.90;;;;;;10324521;28;20234;-81
2021/01/23 17:33:49;;;;;;;7.77;7.03;;;5.90;99.90;;;;;;10348813;28;20257;-82
2021/01/23 17:38:50;;;;;;;7.20;5.97;;;5.80;99.90;;;;;;10359011;28;20199;-82
2021/01/23 17:43:54;;;;;;;7.40;6.70;;;5.90;99.90;;;;;;10376524;28;20225;-81
2021/01/23 17:48:56;;;;;;;8.40;7.03;;;5.80;99.90;;;;;;10375768;28;20222;-80
2021/01/23 17:53:57;;;;;;;8.03;7.37;;;5.80;99.90;;;;;;10358479;28;20626;-81
2021/01/23 17:59:00;;;;;;;6.80;6.30;;;5.80;99.90;;;;;;10367680;28;20233;-83
2021/01/23 18:04:02;;;;;;;7.30;6.70;;;5.80;99.90;;;;;;10370848;28;20222;-83
2021/01/23 18:09:06;;;;;;;7.50;6.90;;;5.80;99.90;;;;;;10365449;28;20296;-81
2021/01/23 18:14:09;;;;;;;6.10;5.60;;;5.90;99.90;;;;;;10347658;28;20256;-82
2021/01/23 18:19:11;;;;;;;6.33;5.83;;;5.90;99.90;;;;;;10345706;28;20794;-83
2021/01/23 18:24:13;;;;;;;6.10;5.60;;;5.80;99.90;;;;;;10353540;28;20296;-82
2021/01/23 18:29:15;;;;;;;6.87;6.13;;;5.80;99.90;;;;;;10354146;28;20239;-82
2021/01/23 18:34:17;;;;;;;6.27;5.77;;;5.70;99.90;;;;;;10372894;28;20226;-82
2021/01/23 18:39:19;;;;;;;5.60;5.20;;;5.60;99.90;;;;;;10387257;28;20198;-82
2021/01/23 18:44:24;;;;;;;5.60;5.20;;;5.50;99.90;;;;;;10405590;28;20644;-83
2021/01/23 18:49:26;;;;;;;7.07;6.47;;;5.40;99.90;;;;;;10368420;28;20240;-82
2021/01/23 18:54:29;;;;;;;7.30;6.63;;;5.40;99.90;;;;;;10371221;28;20222;-82
2021/01/23 18:59:32;;;;;;;7.43;6.40;;;5.40;99.90;;;;;;10365320;28;20214;-84
2021/01/23 19:04:34;;;;;;;6.20;5.53;;;5.40;99.90;;;;;;10332363;28;20433;-83
2021/01/23 19:09:36;;;;;;;5.70;5.30;;;5.40;99.90;;;;;;10380044;28;20226;-82
2021/01/23 19:14:38;;;;;;;6.10;5.50;;;5.50;99.90;;;;;;10407870;28;20258;-83
2021/01/23 19:19:40;;;;;;;4.87;4.47;;;5.50;99.90;;;;;;10362494;28;20765;-81
2021/01/23 19:24:42;;;;;;;5.37;4.97;;;5.50;99.90;;;;;;10402356;28;20281;-81
2021/01/23 19:29:44;;;;;;;6.03;5.50;;;5.60;99.90;;;;;;10372545;28;20605;-84
2021/01/23 19:34:46;;;;;;;4.70;4.30;;;5.60;99.90;;;;;;10370611;28;20273;-82
2021/01/23 19:39:47;;;;;;;4.70;4.30;;;5.60;99.90;;;;;;10352172;28;20298;-82
2021/01/23 19:44:50;;;;;;;4.87;4.47;;;5.60;99.90;;;;;;10351483;28;20226;-84
2021/01/23 19:49:52;;;;;;;5.40;5.00;;;5.60;99.90;;;;;;10331394;28;20223;-80
2021/01/23 19:54:53;;;;;;;4.60;4.30;;;5.40;99.90;;;;;;10347812;28;20226;-84
2021/01/23 19:59:56;;;;;;;7.13;6.40;;;5.10;99.90;;;;;;10369143;28;20209;-83
2021/01/23 20:04:57;;;;;;;6.60;6.00;;;4.90;99.90;;;;;;10367124;28;20639;-83
2021/01/23 20:10:02;;;;;;;6.20;5.80;;;4.80;99.90;;;;;;10367732;28;20293;-81
2021/01/23 20:15:06;;;;;;;5.30;4.80;;;4.70;99.90;;;;;;10372963;28;20262;-82
2021/01/23 20:20:09;;;;;;;8.17;7.67;;;4.70;99.90;;;;;;10318217;28;20238;-82
2021/01/23 20:25:13;;;;;;;7.23;6.63;;;4.60;99.90;;;;;;10309864;28;20590;-83
2021/01/23 20:30:18;;;;;;;8.47;7.77;;;4.60;99.90;;;;;;10338542;28;20223;-85
2021/01/23 20:35:21;;;;;;;7.83;7.23;;;4.60;99.90;;;;;;10357352;28;20273;-82
2021/01/23 20:40:22;;;;;;;8.03;7.33;;;4.50;99.90;;;;;;10321469;28;20199;-83
2021/01/23 20:45:25;;;;;;;9.23;8.57;;;4.50;99.90;;;;;;10366302;28;20222;-82
2021/01/23 20:50:27;;;;;;;9.23;8.53;;;4.50;99.90;;;;;;10333363;28;20312;-83
2021/01/23 20:55:29;;;;;;;9.60;8.90;;;4.50;99.90;;;;;;10348722;28;20309;-83
2021/01/23 21:00:31;;;;;;;8.57;7.97;;;4.60;99.90;;;;;;10350167;28;20199;-82
2021/01/23 21:05:33;;;;;;;10.17;9.47;;;4.60;99.90;;;;;;10365725;28;20508;-83
2021/01/23 21:10:35;;;;;;;15.73;14.13;;;4.60;99.90;;;;;;10350413;28;20624;-84
2021/01/23 21:15:38;;;;;;;13.17;12.07;;;4.70;99.90;;;;;;10299486;28;20501;-82
2021/01/23 21:20:42;;;;;;;10.80;10.00;;;4.70;99.90;;;;;;10314286;28;20199;-83
2021/01/23 21:25:43;;;;;;;9.47;8.80;;;4.70;99.90;;;;;;10321694;28;20703;-83
2021/01/23 21:30:46;;;;;;;10.33;9.57;;;4.70;99.90;;;;;;10346724;28;20227;-83
2021/01/23 21:35:48;;;;;;;9.80;9.03;;;4.70;99.90;;;;;;10348212;28;20785;-82
2021/01/23 21:40:49;;;;;;;9.90;9.10;;;4.70;99.90;;;;;;10332366;28;20199;-81
2021/01/23 21:45:53;;;;;;;10.23;9.43;;;4.70;99.90;;;;;;10350122;28;20297;-81
2021/01/23 21:50:55;;;;;;;10.30;9.33;;;4.60;99.90;;;;;;10364685;28;20226;-81
2021/01/23 21:55:59;;;;;;;9.27;8.57;;;4.50;99.90;;;;;;10363729;28;20226;-83
2021/01/23 22:01:03;;;;;;;10.00;9.20;;;4.50;99.90;;;;;;10335847;28;20191;-83
2021/01/23 22:06:04;;;;;;;7.80;7.20;;;4.50;99.90;;;;;;10322242;28;20227;-82
2021/01/23 22:11:07;;;;;;;6.10;5.40;;;4.50;99.90;;;;;;10366732;28;20662;-84
2021/01/23 22:16:09;;;;;;;6.33;5.83;;;4.50;99.90;;;;;;10333988;28;20608;-83
2021/01/23 22:21:11;;;;;;;6.90;6.40;;;4.60;99.90;;;;;;10372400;28;20186;-82
2021/01/23 22:26:12;;;;;;;5.97;5.50;;;4.70;99.90;;;;;;10344377;28;20230;-83
2021/01/23 22:31:15;;;;;;;4.67;4.43;;;4.80;99.90;;;;;;10332426;28;20278;-81
2021/01/23 22:36:17;;;;;;;4.97;4.67;;;4.80;99.90;;;;;;10330811;28;20227;-82
2021/01/23 22:41:18;;;;;;;5.03;4.70;;;4.90;99.90;;;;;;10333538;28;20569;-80
2021/01/23 22:46:21;;;;;;;5.10;4.80;;;4.90;99.90;;;;;;10323294;28;20223;-80
2021/01/23 22:51:23;;;;;;;5.40;5.10;;;4.90;99.90;;;;;;10329638;28;20692;-80
2021/01/23 22:56:24;;;;;;;5.30;5.00;;;5.00;99.90;;;;;;10351128;28;20222;-80
2021/01/23 23:01:30;;;;;;;5.50;5.10;;;5.00;99.90;;;;;;10351127;28;20797;-82
2021/01/23 23:06:32;;;;;;;4.50;4.20;;;5.00;99.90;;;;;;10355245;28;20225;-81
2021/01/23 23:11:33;;;;;;;4.60;4.40;;;5.00;99.90;;;;;;10356554;28;20226;-81
2021/01/23 23:16:36;;;;;;;5.63;5.23;;;5.00;99.90;;;;;;10371394;28;20764;-81
2021/01/23 23:21:41;;;;;;;4.70;4.50;;;5.10;99.90;;;;;;10361707;28;20595;-80
2021/01/23 23:26:44;;;;;;;5.63;5.33;;;5.10;99.90;;;;;;10383175;28;20729;-80
2021/01/23 23:31:46;;;;;;;6.27;5.87;;;5.00;99.90;;;;;;10367574;28;20260;-81
2021/01/23 23:37:06;;;;;;;6.53;6.13;;;5.00;99.90;;;;;;10384617;28;20557;-82
2021/01/23 23:42:07;;;;;;;6.90;6.40;;;4.90;99.90;;;;;;10357461;28;20222;-81
2021/01/23 23:47:14;;;;;;;7.20;6.70;;;4.90;99.90;;;;;;10381619;28;20276;-80
2021/01/23 23:52:16;;;;;;;7.50;7.10;;;4.90;99.90;;;;;;10367991;28;20325;-81
2021/01/23 23:57:19;;;;;;;6.87;6.47;;;4.80;99.90;;;;;;10372451;28;20766;-82
